Latest Weather Observations for Hunters Hill

IDV60801

Issued at 4:05 pm EST Tuesday 23 September 2014 (issued every 30 minutes, with the page automatically refreshed every 10 minutes)

About weather observations | Map of weather stations | Latest weather observations for VIC | Other Formats
Station Details ID: 082139 Name: HUNTERS HILL Lat: -36.21 Lon: 147.54 Height: 981.0 m
Data from the previous 72 hours. | See also: Recent months at Hunters Hill
Date/Time
EST
Temp
°C
App
Temp
°C
Dew
Point
Rel
Hum
%
Delta-T
°C
Wind Press
QNH
hPa
Press
MSL
hPa
Rain
since 9 am
mm
Dir
 
Spd
km/h
Gust
km/h
Spd
kts
Gust
kts
23/04:00pm 17.7 16.0 3.9 40 6.8 NNW 2 6 1 3 - - 0.0
23/03:30pm 17.9 16.1 5.2 43 6.5 NW 4 7 2 4 - - 0.0
23/03:00pm 17.8 15.4 4.4 41 6.7 NW 6 9 3 5 - - 0.0
23/02:30pm 19.0 17.0 4.4 38 7.4 E 4 9 2 5 - - 0.0
23/02:00pm 19.0 16.7 2.8 34 7.9 ENE 4 9 2 5 - - 0.0
23/01:30pm 19.5 17.5 4.4 37 7.6 ENE 4 6 2 3 - - 0.0
23/01:00pm 17.1 14.4 2.7 38 6.9 ENE 6 9 3 5 - - 0.0
23/12:30pm 18.4 16.3 3.8 38 7.2 N 4 9 2 5 - - 0.0
23/12:00pm 17.6 15.4 3.5 39 6.9 N 4 7 2 4 - - 0.0
23/11:30am 17.0 14.7 3.0 39 6.8 NNW 4 7 2 4 - - 0.0
23/11:00am 16.9 14.9 2.1 37 7.0 W 2 6 1 3 - - 0.0
23/10:30am 16.1 14.1 2.2 39 6.6 W 2 7 1 4 - - 0.0
23/10:00am 15.7 13.8 4.7 48 5.5 W 4 7 2 4 - - 0.0
23/09:30am 14.7 13.2 5.2 53 4.7 W 2 6 1 3 - - 0.0
23/09:00am 14.2 12.5 3.9 50 5.0 W 2 4 1 2 - - 0.0
23/08:30am 12.8 11.8 5.7 62 3.5 CALM 0 0 0 0 - - 0.0
23/08:00am 11.1 10.1 5.4 68 2.8 CALM 0 0 0 0 - - 0.0
23/07:30am 9.8 8.7 5.0 72 2.3 CALM 0 4 0 2 - - 0.0
23/07:00am 9.3 8.1 4.7 73 2.2 CALM 0 2 0 1 - - 0.0
23/06:30am 8.4 6.9 4.8 78 1.7 W 2 4 1 2 - - 0.0
23/06:00am 8.3 6.7 4.7 78 1.7 W 2 4 1 2 - - 0.0
23/05:30am 8.5 7.0 5.1 79 1.6 W 2 4 1 2 - - 0.0
23/05:00am 8.3 6.5 5.2 81 1.5 W 4 4 2 2 - - 0.0
23/04:30am 8.8 7.0 5.4 79 1.6 W 4 6 2 3 - - 0.0
23/04:00am 9.1 7.7 5.3 77 1.8 W 2 6 1 3 - - 0.0
23/03:30am 8.8 7.0 5.4 79 1.6 W 4 4 2 2 - - 0.0
23/03:00am 9.2 7.5 5.8 79 1.6 W 4 4 2 2 - - 0.0
23/02:30am 10.1 8.6 4.9 70 2.5 W 2 4 1 2 - - 0.0
23/02:00am 10.5 8.7 3.3 61 3.3 W 2 4 1 2 - - 0.0
23/01:30am 10.5 8.9 4.4 66 2.9 W 2 6 1 3 - - 0.0
23/01:00am 10.5 8.5 4.2 65 3.0 W 4 6 2 3 - - 0.0
23/12:30am 10.8 8.8 4.5 65 3.0 W 4 6 2 3 - - 0.0
23/12:00am 10.9 8.9 4.4 64 3.1 W 4 6 2 3 - - 0.0
 
Date/Time
EST
Temp
°C
App
Temp
°C
Dew
Point
Rel
Hum
%
Delta-T
°C
Wind Press
QNH
hPa
Press
MSL
hPa
Rain
since 9 am
mm
Dir
 
Spd
km/h
Gust
km/h
Spd
kts
Gust
kts
22/11:30pm 10.9 8.8 4.1 63 3.2 W 4 6 2 3 - - 0.0
22/11:00pm 11.1 9.9 4.6 64 3.1 CALM 0 2 0 1 - - 0.0
22/10:30pm 11.0 9.2 5.5 69 2.7 W 4 6 2 3 - - 0.0
22/10:00pm 11.2 9.4 5.5 68 2.8 W 4 4 2 2 - - 0.0
22/09:30pm 11.4 9.6 5.3 66 3.0 W 4 4 2 2 - - 0.0
22/09:00pm 11.6 9.8 5.3 65 3.1 W 4 6 2 3 - - 0.0
22/08:30pm 11.6 9.8 5.5 66 3.0 W 4 4 2 2 - - 0.0
22/08:00pm 11.7 9.9 5.3 65 3.1 W 4 6 2 3 - - 0.0
22/07:30pm 11.5 9.8 5.8 68 2.8 W 4 7 2 4 - - 0.0
22/07:00pm 11.1 9.4 6.0 71 2.5 W 4 6 2 3 - - 0.0
22/06:30pm 11.0 9.4 6.4 73 2.3 W 4 9 2 5 - - 0.0
22/06:00pm 12.0 9.9 6.5 69 2.8 W 7 11 4 6 - - 0.0
22/05:30pm 13.6 12.1 6.7 63 3.5 W 4 7 2 4 - - 0.0
22/05:00pm 15.2 13.3 6.5 56 4.5 W 6 9 3 5 - - 0.0
22/04:30pm 15.8 13.8 6.3 53 4.9 WNW 6 11 3 6 - - 0.0
22/04:00pm 15.4 13.5 4.8 49 5.3 NW 4 11 2 6 - - 0.0
22/03:30pm 15.4 12.9 3.9 46 5.6 NW 6 13 3 7 - - 0.0
22/03:00pm 15.9 13.6 4.6 47 5.6 W 6 11 3 6 - - 0.0
22/02:30pm 15.9 13.0 1.6 38 6.7 NNW 6 11 3 6 - - 0.0
22/02:00pm 16.9 14.7 1.0 34 7.4 NNW 2 7 1 4 - - 0.0
22/01:30pm 15.9 13.5 -0.3 33 7.3 N 2 7 1 4 - - 0.0
22/01:00pm 14.6 11.5 0.1 37 6.5 N 6 11 3 6 - - 0.0
22/12:30pm 14.5 11.4 1.4 41 6.0 N 7 15 4 8 - - 0.0
22/12:00pm 15.1 12.3 2.0 41 6.1 N 6 11 3 6 - - 0.0
22/11:30am 13.4 10.4 2.0 46 5.2 N 7 13 4 7 - - 0.0
22/11:00am 13.2 10.3 2.4 48 5.0 N 7 15 4 8 - - 0.0
22/10:30am 13.7 11.2 3.5 50 4.9 NNE 6 13 3 7 - - 0.0
22/10:00am 14.0 12.3 6.1 59 4.0 N 4 9 2 5 - - 0.0
22/09:30am 13.2 11.5 5.9 61 3.6 SW 4 7 2 4 - - 0.0
22/09:00am 11.7 9.4 4.9 63 3.3 WSW 6 9 3 5 - - 0.0
22/08:30am 11.3 9.6 3.8 60 3.5 SW 2 7 1 4 - - 0.0
22/08:00am 10.3 8.6 3.8 64 3.0 SW 2 4 1 2 - - 0.0
22/07:30am 8.2 6.3 3.1 70 2.3 SW 2 4 1 2 - - 0.0
22/07:00am 7.4 5.6 3.3 75 1.8 SW 2 4 1 2 - - 0.0
22/06:30am 6.8 4.9 2.9 76 1.7 SW 2 2 1 1 - - 0.0
22/06:00am 6.6 4.7 3.0 78 1.6 SW 2 4 1 2 - - 0.0
22/05:30am 6.5 4.6 3.1 79 1.5 SW 2 4 1 2 - - 0.0
22/05:00am 6.6 4.8 3.2 79 1.5 SW 2 4 1 2 - - 0.0
22/04:30am 7.1 4.9 3.5 78 1.6 SW 4 6 2 3 - - 0.0
22/04:00am 7.0 5.3 4.0 81 1.4 SW 2 4 1 2 - - 0.0
22/03:30am 7.0 5.3 3.8 80 1.5 SW 2 4 1 2 - - 0.0
22/03:00am 7.5 5.7 3.6 76 1.8 SW 2 4 1 2 - - 0.0
22/02:30am 7.5 6.2 3.9 78 1.6 CALM 0 0 0 0 - - 0.0
22/02:00am 7.3 5.7 4.6 83 1.3 SW 2 4 1 2 - - 0.0
22/01:30am 7.1 5.1 4.4 83 1.2 SW 4 6 2 3 - - 0.0
22/01:00am 7.5 5.5 4.5 81 1.4 SW 4 6 2 3 - - 0.0
22/12:30am 7.8 5.8 4.2 78 1.7 SW 4 6 2 3 - - 0.0
22/12:00am 8.1 6.8 4.3 77 1.8 CALM 0 2 0 1 - - 0.0
 
Date/Time
EST
Temp
°C
App
Temp
°C
Dew
Point
Rel
Hum
%
Delta-T
°C
Wind Press
QNH
hPa
Press
MSL
hPa
Rain
since 9 am
mm
Dir
 
Spd
km/h
Gust
km/h
Spd
kts
Gust
kts
21/11:30pm 8.1 6.5 4.3 77 1.8 SW 2 4 1 2 - - 0.0
21/11:00pm 8.8 6.7 3.8 71 2.3 SW 4 6 2 3 - - 0.0
21/10:30pm 9.0 6.8 3.4 68 2.6 SW 4 6 2 3 - - 0.0
21/10:00pm 9.4 7.2 3.6 67 2.7 SW 4 7 2 4 - - 0.0
21/09:30pm 9.2 7.0 3.6 68 2.6 SW 4 7 2 4 - - 0.0
21/09:00pm 9.6 7.5 4.0 68 2.6 SW 4 7 2 4 - - 0.0
21/08:30pm 9.5 7.5 4.3 70 2.4 SW 4 7 2 4 - - 0.0
21/08:00pm 9.2 7.5 4.2 71 2.3 SW 2 6 1 3 - - 0.0
21/07:30pm 8.9 7.1 3.7 70 2.4 SW 2 4 1 2 - - 0.0
21/07:00pm 9.2 7.8 3.6 68 2.6 CALM 0 2 0 1 - - 0.0
21/06:30pm 9.6 7.4 3.1 64 3.0 SW 4 6 2 3 - - 0.0
21/06:00pm 10.0 7.8 3.3 63 3.1 SW 4 6 2 3 - - 0.0
21/05:30pm 11.4 9.1 2.9 56 3.9 SW 4 7 2 4 - - 0.0
21/05:00pm 13.0 10.3 0.1 41 5.7 SW 4 9 2 5 - - 0.0
21/04:30pm 13.9 11.6 0.2 39 6.1 SW 2 6 1 3 - - 0.0
21/04:00pm 14.4 11.9 1.3 41 6.0 SW 4 9 2 5 - - 0.0
21/03:30pm 14.4 11.5 1.7 42 5.9 WSW 6 11 3 6 - - 0.0
21/03:00pm 14.0 11.0 2.3 45 5.4 SW 7 11 4 6 - - 0.0
21/02:30pm 13.6 10.4 3.1 49 5.0 W 9 20 5 11 - - 0.0
21/02:00pm 14.0 11.4 3.2 48 5.1 NW 6 11 3 6 - - 0.0
21/01:30pm 14.0 11.5 3.8 50 4.9 W 6 13 3 7 - - 0.0
21/01:00pm 12.8 10.1 2.9 51 4.6 W 6 15 3 8 - - 0.0
21/12:30pm 13.2 10.5 3.8 53 4.5 NW 7 15 4 8 - - 0.0
21/12:00pm 12.3 9.5 3.0 53 4.3 W 7 17 4 9 - - 0.0
21/11:30am 11.6 8.9 2.4 53 4.2 W 6 13 3 7 - - 0.0
21/11:00am 12.0 9.4 3.3 55 4.1 W 6 13 3 7 - - 0.0
21/10:30am 10.8 8.4 2.1 55 3.9 NW 4 11 2 6 - - 0.0
21/10:00am 11.1 8.8 2.9 57 3.8 NW 4 9 2 5 - - 0.0
21/09:30am 10.4 8.2 3.2 61 3.3 WNW 4 9 2 5 - - 0.0
21/09:00am 10.4 8.5 2.7 59 3.5 SSE 2 6 1 3 - - 0.0
21/08:30am 10.1 7.7 2.2 58 3.6 SSE 4 6 2 3 - - 0.0
21/08:00am 8.2 6.4 1.1 61 3.1 CALM 0 0 0 0 - - 0.0
21/07:30am 7.0 4.8 1.1 66 2.5 SSE 2 4 1 2 - - 0.0
21/07:00am 6.6 4.4 0.9 67 2.4 SSE 2 4 1 2 - - 0.0
21/06:30am 5.8 3.1 0.0 66 2.4 SSE 4 6 2 3 - - 0.0
21/06:00am 5.4 3.1 0.4 70 2.1 SSE 2 4 1 2 - - 0.0
21/05:30am 5.5 3.2 0.1 68 2.2 SSE 2 4 1 2 - - 0.0
21/05:00am 5.5 3.1 -0.1 67 2.3 SSE 2 4 1 2 - - 0.0
21/04:30am 5.3 2.6 0.3 70 2.1 SSE 4 4 2 2 - - 0.0
21/04:00am 5.2 2.9 0.2 70 2.0 SSE 2 4 1 2 - - 0.0
21/03:30am 5.2 2.5 0.0 69 2.1 SSE 4 6 2 3 - - 0.0
21/03:00am 5.5 2.7 -0.1 67 2.3 SSE 4 6 2 3 - - 0.0
21/02:30am 5.4 2.7 0.2 69 2.1 SSE 4 6 2 3 - - 0.0
21/02:00am 5.3 2.7 0.7 72 1.9 SSE 4 7 2 4 - - 0.0
21/01:30am 5.4 2.4 0.6 71 2.0 SSE 6 7 3 4 - - 0.0
21/01:00am 5.2 2.2 1.0 74 1.8 SSE 6 7 3 4 - - 0.0
21/12:30am 5.2 2.6 1.0 74 1.8 SSE 4 6 2 3 - - 0.0
21/12:00am 5.5 2.5 0.9 72 1.9 SSE 6 9 3 5 - - 0.0
 
Date/Time
EST
Temp
°C
App
Temp
°C
Dew
Point
Rel
Hum
%
Delta-T
°C
Wind Press
QNH
hPa
Press
MSL
hPa
Rain
since 9 am
mm
Dir
 
Spd
km/h
Gust
km/h
Spd
kts
Gust
kts
20/11:30pm 5.3 2.3 0.7 72 1.9 SSE 6 9 3 5 - - 0.0
20/11:00pm 5.9 2.9 0.5 68 2.2 SSE 6 17 3 9 - - 0.0
20/10:30pm 6.2 3.1 0.3 66 2.4 SSE 6 11 3 6 - - 0.0
20/10:00pm 6.5 3.2 0.4 65 2.5 SSE 7 19 4 10 - - 0.0
20/09:30pm 6.5 3.3 0.6 66 2.5 SSE 7 17 4 9 - - 0.0
20/09:00pm 7.1 3.9 1.0 65 2.6 SSE 7 15 4 8 - - 0.0
20/08:30pm 7.4 3.9 1.3 65 2.6 SSE 9 17 5 9 - - 0.0
20/08:00pm 7.5 4.6 1.6 66 2.6 SW 6 11 3 6 - - 0.0
20/07:30pm 6.8 4.4 2.1 72 2.0 SW 4 7 2 4 - - 0.0
20/07:00pm 7.3 5.0 2.8 73 2.0 SW 4 6 2 3 - - 0.0
20/06:30pm 8.1 5.8 3.0 70 2.3 SW 4 7 2 4 - - 0.0
20/06:00pm 9.2 7.0 3.2 66 2.7 SW 4 6 2 3 - - 0.0
20/05:30pm 10.8 8.5 2.9 58 3.6 SW 4 7 2 4 - - 0.0
20/05:00pm 12.7 10.8 2.6 50 4.7 SW 2 6 1 3 - - 0.0
20/04:30pm 13.2 11.0 0.9 43 5.5 W 2 6 1 3 - - 0.0

Other Formats:

Comma delimited format used in spreadsheet applications
http://www.bom.gov.au/fwo/IDV60801/IDV60801.94878.axf

JavaScript Object Notation format (JSON) in row-major order
http://www.bom.gov.au/fwo/IDV60801/IDV60801.94878.json